sensor_id;sensor_type;location;lat;lon;timestamp;pressure;altitude;pressure_sealevel;temperature;humidity
75717;BME280;64333;50.138;14.332;2024-02-16T00:02:18;98372.22;;;9.29;nan
75717;BME280;64333;50.138;14.332;2024-02-16T00:04:44;98372.53;;;9.20;nan
75717;BME280;64333;50.138;14.332;2024-02-16T00:07:09;98382.84;;;10.88;nan
75717;BME280;64333;50.138;14.332;2024-02-16T00:09:35;98369.00;;;12.85;nan
75717;BME280;64333;50.138;14.332;2024-02-16T00:12:01;98358.88;;;12.81;nan
75717;BME280;64333;50.138;14.332;2024-02-16T00:14:26;98371.88;;;10.02;nan
75717;BME280;64333;50.138;14.332;2024-02-16T00:16:52;98369.97;;;12.16;nan
75717;BME280;64333;50.138;14.332;2024-02-16T00:19:17;98365.34;;;12.23;nan
75717;BME280;64333;50.138;14.332;2024-02-16T00:21:42;98357.63;;;12.38;nan
75717;BME280;64333;50.138;14.332;2024-02-16T00:24:08;98356.41;;;12.45;nan
75717;BME280;64333;50.138;14.332;2024-02-16T00:26:34;98355.88;;;12.22;nan
75717;BME280;64333;50.138;14.332;2024-02-16T00:28:59;98349.78;;;12.40;nan
75717;BME280;64333;50.138;14.332;2024-02-16T00:31:24;98351.31;;;12.44;nan
75717;BME280;64333;50.138;14.332;2024-02-16T00:33:49;98349.47;;;12.29;nan
75717;BME280;64333;50.138;14.332;2024-02-16T00:36:15;98341.63;;;12.30;nan
75717;BME280;64333;50.138;14.332;2024-02-16T00:38:40;98336.91;;;12.21;nan
75717;BME280;64333;50.138;14.332;2024-02-16T00:41:05;98323.22;;;12.19;nan
75717;BME280;64333;50.138;14.332;2024-02-16T00:43:32;98335.09;;;12.40;nan
75717;BME280;64333;50.138;14.332;2024-02-16T00:45:57;98335.16;;;12.39;nan
75717;BME280;64333;50.138;14.332;2024-02-16T00:48:23;98327.16;;;12.43;nan
75717;BME280;64333;50.138;14.332;2024-02-16T00:50:49;98328.53;;;12.33;nan
75717;BME280;64333;50.138;14.332;2024-02-16T00:53:14;98326.09;;;12.30;nan
75717;BME280;64333;50.138;14.332;2024-02-16T00:55:40;98323.75;;;12.75;nan
75717;BME280;64333;50.138;14.332;2024-02-16T00:58:06;98327.41;;;12.71;nan
75717;BME280;64333;50.138;14.332;2024-02-16T01:00:32;98299.69;;;12.56;nan
75717;BME280;64333;50.138;14.332;2024-02-16T01:02:57;98330.16;;;12.36;nan
75717;BME280;64333;50.138;14.332;2024-02-16T01:05:22;98324.13;;;12.52;nan
75717;BME280;64333;50.138;14.332;2024-02-16T01:07:48;98321.34;;;12.55;nan
75717;BME280;64333;50.138;14.332;2024-02-16T01:10:13;98326.38;;;10.41;nan
75717;BME280;64333;50.138;14.332;2024-02-16T01:12:39;98343.63;;;9.12;nan
75717;BME280;64333;50.138;14.332;2024-02-16T01:15:05;98336.09;;;8.84;nan
75717;BME280;64333;50.138;14.332;2024-02-16T01:17:30;98331.28;;;8.51;nan
75717;BME280;64333;50.138;14.332;2024-02-16T01:19:58;98327.41;;;8.39;nan
75717;BME280;64333;50.138;14.332;2024-02-16T01:22:23;98337.75;;;8.38;nan
75717;BME280;64333;50.138;14.332;2024-02-16T01:24:48;98335.00;;;8.42;nan
75717;BME280;64333;50.138;14.332;2024-02-16T01:27:14;98334.41;;;8.36;nan
75717;BME280;64333;50.138;14.332;2024-02-16T01:29:39;98338.84;;;8.31;nan
75717;BME280;64333;50.138;14.332;2024-02-16T01:32:05;98338.75;;;8.34;nan
75717;BME280;64333;50.138;14.332;2024-02-16T01:34:30;98342.56;;;8.22;nan
75717;BME280;64333;50.138;14.332;2024-02-16T01:36:56;98335.81;;;8.18;nan
75717;BME280;64333;50.138;14.332;2024-02-16T01:39:22;98337.94;;;9.04;nan
75717;BME280;64333;50.138;14.332;2024-02-16T01:41:47;98341.63;;;8.25;nan
75717;BME280;64333;50.138;14.332;2024-02-16T01:44:13;98341.75;;;8.22;nan
75717;BME280;64333;50.138;14.332;2024-02-16T01:46:40;98343.91;;;8.08;nan
75717;BME280;64333;50.138;14.332;2024-02-16T01:49:06;98341.19;;;8.12;nan
75717;BME280;64333;50.138;14.332;2024-02-16T01:51:33;98343.50;;;7.94;nan
75717;BME280;64333;50.138;14.332;2024-02-16T01:53:59;98341.03;;;7.91;nan
75717;BME280;64333;50.138;14.332;2024-02-16T01:56:26;98335.59;;;10.67;nan
75717;BME280;64333;50.138;14.332;2024-02-16T01:58:52;98336.63;;;11.56;nan
75717;BME280;64333;50.138;14.332;2024-02-16T02:01:17;98335.16;;;12.05;nan
75717;BME280;64333;50.138;14.332;2024-02-16T02:03:42;98326.94;;;12.14;nan
75717;BME280;64333;50.138;14.332;2024-02-16T02:06:08;98335.88;;;8.66;nan
75717;BME280;64333;50.138;14.332;2024-02-16T02:08:33;98341.25;;;8.09;nan
75717;BME280;64333;50.138;14.332;2024-02-16T02:10:58;98339.84;;;8.01;nan
75717;BME280;64333;50.138;14.332;2024-02-16T02:13:24;98331.41;;;7.97;nan
75717;BME280;64333;50.138;14.332;2024-02-16T02:15:50;98335.50;;;8.03;nan
75717;BME280;64333;50.138;14.332;2024-02-16T02:18:15;98328.75;;;7.99;nan
75717;BME280;64333;50.138;14.332;2024-02-16T02:20:40;98324.81;;;8.15;nan
75717;BME280;64333;50.138;14.332;2024-02-16T02:23:06;98332.63;;;7.86;nan
75717;BME280;64333;50.138;14.332;2024-02-16T02:25:31;98326.38;;;7.67;nan
75717;BME280;64333;50.138;14.332;2024-02-16T02:27:56;98319.81;;;7.58;nan
75717;BME280;64333;50.138;14.332;2024-02-16T02:30:22;98316.59;;;7.52;nan
75717;BME280;64333;50.138;14.332;2024-02-16T02:32:49;98309.06;;;10.63;nan
75717;BME280;64333;50.138;14.332;2024-02-16T02:35:16;98306.16;;;11.44;nan
75717;BME280;64333;50.138;14.332;2024-02-16T02:37:42;98299.88;;;11.68;nan
75717;BME280;64333;50.138;14.332;2024-02-16T02:40:08;98313.06;;;9.03;nan
75717;BME280;64333;50.138;14.332;2024-02-16T02:42:35;98306.00;;;7.87;nan
75717;BME280;64333;50.138;14.332;2024-02-16T02:45:03;98300.97;;;7.58;nan
75717;BME280;64333;50.138;14.332;2024-02-16T02:47:28;98304.06;;;7.41;nan
75717;BME280;64333;50.138;14.332;2024-02-16T02:49:54;98300.38;;;9.20;nan
75717;BME280;64333;50.138;14.332;2024-02-16T02:52:21;98293.59;;;7.20;nan
75717;BME280;64333;50.138;14.332;2024-02-16T02:54:46;98302.13;;;6.93;nan
75717;BME280;64333;50.138;14.332;2024-02-16T02:57:12;98288.25;;;6.71;nan
75717;BME280;64333;50.138;14.332;2024-02-16T02:59:37;98294.72;;;7.39;nan
75717;BME280;64333;50.138;14.332;2024-02-16T03:02:03;98291.66;;;7.00;nan
75717;BME280;64333;50.138;14.332;2024-02-16T03:04:28;98303.22;;;6.55;nan
75717;BME280;64333;50.138;14.332;2024-02-16T03:06:53;98296.59;;;6.47;nan
75717;BME280;64333;50.138;14.332;2024-02-16T03:09:19;98295.47;;;6.87;nan
75717;BME280;64333;50.138;14.332;2024-02-16T03:11:44;98300.09;;;7.85;nan
75717;BME280;64333;50.138;14.332;2024-02-16T03:14:09;98291.94;;;7.19;nan
75717;BME280;64333;50.138;14.332;2024-02-16T03:16:34;98298.78;;;9.39;nan
75717;BME280;64333;50.138;14.332;2024-02-16T03:19:00;98289.31;;;10.42;nan
75717;BME280;64333;50.138;14.332;2024-02-16T03:21:25;98306.41;;;7.49;nan
75717;BME280;64333;50.138;14.332;2024-02-16T03:23:51;98308.91;;;6.95;nan
75717;BME280;64333;50.138;14.332;2024-02-16T03:26:17;98301.94;;;7.28;nan
75717;BME280;64333;50.138;14.332;2024-02-16T03:28:44;98311.72;;;6.88;nan
75717;BME280;64333;50.138;14.332;2024-02-16T03:31:27;98310.91;;;6.55;nan
75717;BME280;64333;50.138;14.332;2024-02-16T03:33:54;98304.47;;;7.00;nan
75717;BME280;64333;50.138;14.332;2024-02-16T03:36:20;98295.19;;;8.75;nan
75717;BME280;64333;50.138;14.332;2024-02-16T03:38:47;98296.00;;;7.79;nan
75717;BME280;64333;50.138;14.332;2024-02-16T03:41:18;98295.81;;;6.45;nan
75717;BME280;64333;50.138;14.332;2024-02-16T03:43:44;98292.59;;;6.38;nan
75717;BME280;64333;50.138;14.332;2024-02-16T03:46:09;98289.03;;;9.02;nan
75717;BME280;64333;50.138;14.332;2024-02-16T03:48:35;98294.03;;;7.34;nan
75717;BME280;64333;50.138;14.332;2024-02-16T03:51:01;98299.72;;;6.58;nan
75717;BME280;64333;50.138;14.332;2024-02-16T03:53:28;98303.50;;;6.45;nan
75717;BME280;64333;50.138;14.332;2024-02-16T03:55:53;98293.97;;;6.50;nan
75717;BME280;64333;50.138;14.332;2024-02-16T03:58:19;98288.63;;;6.57;nan
75717;BME280;64333;50.138;14.332;2024-02-16T04:00:44;98293.94;;;6.51;nan
75717;BME280;64333;50.138;14.332;2024-02-16T04:03:09;98280.88;;;9.36;nan
75717;BME280;64333;50.138;14.332;2024-02-16T04:05:38;98291.16;;;9.14;nan
75717;BME280;64333;50.138;14.332;2024-02-16T04:08:04;98280.72;;;10.23;nan
75717;BME280;64333;50.138;14.332;2024-02-16T04:10:31;98284.34;;;10.58;nan
75717;BME280;64333;50.138;14.332;2024-02-16T04:12:56;98291.47;;;7.86;nan
75717;BME280;64333;50.138;14.332;2024-02-16T04:15:22;98293.28;;;7.03;nan
75717;BME280;64333;50.138;14.332;2024-02-16T04:17:47;98309.66;;;6.99;nan
75717;BME280;64333;50.138;14.332;2024-02-16T04:20:15;98305.28;;;7.30;nan
75717;BME280;64333;50.138;14.332;2024-02-16T04:22:41;98305.34;;;7.28;nan
75717;BME280;64333;50.138;14.332;2024-02-16T04:25:06;98320.03;;;6.96;nan
75717;BME280;64333;50.138;14.332;2024-02-16T04:27:32;98313.13;;;7.53;nan
75717;BME280;64333;50.138;14.332;2024-02-16T04:29:57;98318.16;;;7.01;nan
75717;BME280;64333;50.138;14.332;2024-02-16T04:32:22;98320.28;;;6.87;nan
75717;BME280;64333;50.138;14.332;2024-02-16T04:34:50;98322.53;;;6.97;nan
75717;BME280;64333;50.138;14.332;2024-02-16T04:37:17;98324.63;;;6.85;nan
75717;BME280;64333;50.138;14.332;2024-02-16T04:39:44;98320.44;;;6.81;nan
75717;BME280;64333;50.138;14.332;2024-02-16T04:42:10;98316.88;;;8.93;nan
75717;BME280;64333;50.138;14.332;2024-02-16T04:44:38;98322.53;;;6.97;nan
75717;BME280;64333;50.138;14.332;2024-02-16T04:47:04;98333.50;;;6.73;nan
75717;BME280;64333;50.138;14.332;2024-02-16T04:49:30;98328.53;;;6.67;nan
75717;BME280;64333;50.138;14.332;2024-02-16T04:51:55;98326.69;;;6.72;nan
75717;BME280;64333;50.138;14.332;2024-02-16T04:54:20;98318.59;;;8.46;nan
75717;BME280;64333;50.138;14.332;2024-02-16T04:56:46;98326.28;;;6.86;nan
75717;BME280;64333;50.138;14.332;2024-02-16T04:59:11;98317.59;;;6.61;nan
75717;BME280;64333;50.138;14.332;2024-02-16T05:01:36;98311.38;;;9.46;nan
75717;BME280;64333;50.138;14.332;2024-02-16T05:04:02;98301.66;;;10.16;nan
75717;BME280;64333;50.138;14.332;2024-02-16T05:06:27;98300.84;;;9.94;nan
75717;BME280;64333;50.138;14.332;2024-02-16T05:08:53;98300.44;;;9.83;nan
75717;BME280;64333;50.138;14.332;2024-02-16T05:11:19;98304.31;;;9.93;nan
75717;BME280;64333;50.138;14.332;2024-02-16T05:13:44;98287.53;;;10.04;nan
75717;BME280;64333;50.138;14.332;2024-02-16T05:16:10;98283.09;;;10.08;nan
75717;BME280;64333;50.138;14.332;2024-02-16T05:18:36;98282.41;;;10.03;nan
75717;BME280;64333;50.138;14.332;2024-02-16T05:21:02;98276.84;;;9.92;nan
75717;BME280;64333;50.138;14.332;2024-02-16T05:23:27;98285.41;;;10.34;nan
75717;BME280;64333;50.138;14.332;2024-02-16T05:25:53;98281.13;;;10.13;nan
75717;BME280;64333;50.138;14.332;2024-02-16T05:28:19;98278.94;;;10.24;nan
75717;BME280;64333;50.138;14.332;2024-02-16T05:30:45;98286.03;;;10.19;nan
75717;BME280;64333;50.138;14.332;2024-02-16T05:33:10;98288.16;;;10.29;nan
75717;BME280;64333;50.138;14.332;2024-02-16T05:35:36;98288.06;;;10.32;nan
75717;BME280;64333;50.138;14.332;2024-02-16T05:38:05;98301.16;;;10.48;nan
75717;BME280;64333;50.138;14.332;2024-02-16T05:40:35;98305.69;;;11.18;nan
75717;BME280;64333;50.138;14.332;2024-02-16T05:43:10;98308.81;;;11.24;nan
75717;BME280;64333;50.138;14.332;2024-02-16T05:45:36;98307.97;;;11.42;nan
75717;BME280;64333;50.138;14.332;2024-02-16T05:48:01;98303.81;;;11.21;nan
75717;BME280;64333;50.138;14.332;2024-02-16T05:50:26;98304.91;;;10.79;nan
75717;BME280;64333;50.138;14.332;2024-02-16T05:52:52;98299.25;;;10.71;nan
75717;BME280;64333;50.138;14.332;2024-02-16T05:55:18;98313.66;;;10.57;nan
75717;BME280;64333;50.138;14.332;2024-02-16T05:57:46;98311.56;;;10.65;nan
75717;BME280;64333;50.138;14.332;2024-02-16T06:00:11;98313.78;;;10.74;nan
75717;BME280;64333;50.138;14.332;2024-02-16T06:02:38;98315.00;;;10.65;nan
75717;BME280;64333;50.138;14.332;2024-02-16T06:05:04;98312.84;;;10.75;nan
75717;BME280;64333;50.138;14.332;2024-02-16T06:07:30;98323.31;;;10.72;nan
75717;BME280;64333;50.138;14.332;2024-02-16T06:09:56;98330.97;;;10.55;nan
75717;BME280;64333;50.138;14.332;2024-02-16T06:12:22;98320.91;;;10.49;nan
75717;BME280;64333;50.138;14.332;2024-02-16T06:14:47;98316.28;;;10.55;nan
75717;BME280;64333;50.138;14.332;2024-02-16T06:17:15;98320.84;;;10.30;nan
75717;BME280;64333;50.138;14.332;2024-02-16T06:19:41;98319.66;;;10.57;nan
75717;BME280;64333;50.138;14.332;2024-02-16T06:22:07;98316.31;;;10.35;nan
75717;BME280;64333;50.138;14.332;2024-02-16T06:24:33;98325.41;;;10.02;nan
75717;BME280;64333;50.138;14.332;2024-02-16T06:26:58;98323.69;;;10.24;nan
75717;BME280;64333;50.138;14.332;2024-02-16T06:29:24;98334.00;;;10.04;nan
75717;BME280;64333;50.138;14.332;2024-02-16T06:31:49;98321.63;;;9.69;nan
75717;BME280;64333;50.138;14.332;2024-02-16T06:34:15;98333.25;;;10.01;nan
75717;BME280;64333;50.138;14.332;2024-02-16T06:36:43;98331.94;;;10.32;nan
75717;BME280;64333;50.138;14.332;2024-02-16T06:39:09;98341.28;;;10.15;nan
75717;BME280;64333;50.138;14.332;2024-02-16T06:41:42;98349.66;;;10.20;nan
75717;BME280;64333;50.138;14.332;2024-02-16T06:44:09;98358.53;;;10.34;nan
75717;BME280;64333;50.138;14.332;2024-02-16T06:46:35;98355.47;;;10.25;nan
75717;BME280;64333;50.138;14.332;2024-02-16T06:49:00;98355.56;;;10.63;nan
75717;BME280;64333;50.138;14.332;2024-02-16T06:51:25;98360.09;;;10.58;nan
75717;BME280;64333;50.138;14.332;2024-02-16T06:53:52;98365.03;;;10.63;nan
75717;BME280;64333;50.138;14.332;2024-02-16T06:56:18;98367.63;;;10.82;nan
75717;BME280;64333;50.138;14.332;2024-02-16T06:58:44;98366.97;;;10.77;nan
75717;BME280;64333;50.138;14.332;2024-02-16T07:01:09;98370.59;;;10.93;nan
75717;BME280;64333;50.138;14.332;2024-02-16T07:03:34;98369.34;;;10.62;nan
75717;BME280;64333;50.138;14.332;2024-02-16T07:06:03;98365.00;;;10.44;nan
75717;BME280;64333;50.138;14.332;2024-02-16T07:08:28;98355.69;;;10.40;nan
75717;BME280;64333;50.138;14.332;2024-02-16T07:10:54;98370.47;;;10.37;nan
75717;BME280;64333;50.138;14.332;2024-02-16T07:13:19;98366.41;;;10.51;nan
75717;BME280;64333;50.138;14.332;2024-02-16T07:15:45;98368.75;;;10.37;nan
75717;BME280;64333;50.138;14.332;2024-02-16T07:18:10;98371.63;;;10.50;nan
75717;BME280;64333;50.138;14.332;2024-02-16T07:20:35;98382.72;;;10.72;nan
75717;BME280;64333;50.138;14.332;2024-02-16T07:23:02;98374.34;;;10.67;nan
75717;BME280;64333;50.138;14.332;2024-02-16T07:25:27;98369.81;;;10.72;nan
75717;BME280;64333;50.138;14.332;2024-02-16T07:27:53;98366.47;;;10.70;nan
75717;BME280;64333;50.138;14.332;2024-02-16T07:30:18;98374.88;;;10.75;nan
75717;BME280;64333;50.138;14.332;2024-02-16T07:32:50;98376.66;;;10.53;nan
75717;BME280;64333;50.138;14.332;2024-02-16T07:35:18;98364.34;;;10.39;nan
75717;BME280;64333;50.138;14.332;2024-02-16T07:37:43;98362.72;;;10.57;nan
75717;BME280;64333;50.138;14.332;2024-02-16T07:40:09;98374.34;;;10.67;nan
75717;BME280;64333;50.138;14.332;2024-02-16T07:42:38;98358.06;;;10.45;nan
75717;BME280;64333;50.138;14.332;2024-02-16T07:45:05;98356.69;;;10.56;nan
75717;BME280;64333;50.138;14.332;2024-02-16T07:47:32;98361.56;;;10.64;nan
75717;BME280;64333;50.138;14.332;2024-02-16T07:49:57;98354.41;;;10.50;nan
75717;BME280;64333;50.138;14.332;2024-02-16T07:52:23;98367.56;;;10.44;nan
75717;BME280;64333;50.138;14.332;2024-02-16T07:54:48;98383.31;;;10.58;nan
75717;BME280;64333;50.138;14.332;2024-02-16T07:57:14;98384.28;;;10.76;nan
75717;BME280;64333;50.138;14.332;2024-02-16T07:59:40;98374.47;;;10.44;nan
75717;BME280;64333;50.138;14.332;2024-02-16T08:02:06;98378.88;;;10.62;nan
75717;BME280;64333;50.138;14.332;2024-02-16T08:04:32;98379.38;;;10.70;nan
75717;BME280;64333;50.138;14.332;2024-02-16T08:06:57;98364.72;;;11.08;nan
75717;BME280;64333;50.138;14.332;2024-02-16T08:09:23;98370.66;;;10.72;nan
75717;BME280;64333;50.138;14.332;2024-02-16T08:11:48;98373.81;;;10.78;nan
75717;BME280;64333;50.138;14.332;2024-02-16T08:14:14;98373.50;;;11.61;nan
75717;BME280;64333;50.138;14.332;2024-02-16T08:16:39;98374.50;;;11.94;nan
75717;BME280;64333;50.138;14.332;2024-02-16T08:19:04;98363.41;;;12.43;nan
75717;BME280;64333;50.138;14.332;2024-02-16T08:21:30;98380.78;;;12.07;nan
75717;BME280;64333;50.138;14.332;2024-02-16T08:23:56;98368.91;;;12.20;nan
75717;BME280;64333;50.138;14.332;2024-02-16T08:26:21;98371.28;;;12.25;nan
75717;BME280;64333;50.138;14.332;2024-02-16T08:28:46;98360.97;;;11.71;nan
75717;BME280;64333;50.138;14.332;2024-02-16T08:31:16;98356.56;;;12.59;nan
75717;BME280;64333;50.138;14.332;2024-02-16T08:33:46;98361.34;;;13.16;nan
75717;BME280;64333;50.138;14.332;2024-02-16T08:36:12;98356.22;;;11.97;nan
75717;BME280;64333;50.138;14.332;2024-02-16T08:38:37;98359.31;;;11.87;nan
75717;BME280;64333;50.138;14.332;2024-02-16T08:41:02;98365.13;;;11.92;nan
75717;BME280;64333;50.138;14.332;2024-02-16T08:43:28;98356.19;;;12.16;nan
75717;BME280;64333;50.138;14.332;2024-02-16T08:45:54;98361.56;;;11.94;nan
75717;BME280;64333;50.138;14.332;2024-02-16T08:48:19;98363.72;;;12.20;nan
75717;BME280;64333;50.138;14.332;2024-02-16T08:50:45;98357.63;;;12.55;nan
75717;BME280;64333;50.138;14.332;2024-02-16T08:53:11;98353.97;;;12.25;nan
75717;BME280;64333;50.138;14.332;2024-02-16T08:55:36;98362.19;;;11.99;nan
75717;BME280;64333;50.138;14.332;2024-02-16T08:58:02;98366.94;;;12.42;nan
75717;BME280;64333;50.138;14.332;2024-02-16T09:00:27;98366.28;;;12.03;nan
75717;BME280;64333;50.138;14.332;2024-02-16T09:02:53;98373.81;;;11.91;nan
75717;BME280;64333;50.138;14.332;2024-02-16T09:05:20;98377.09;;;12.11;nan
75717;BME280;64333;50.138;14.332;2024-02-16T09:07:45;98373.41;;;12.34;nan
75717;BME280;64333;50.138;14.332;2024-02-16T09:10:12;98380.94;;;12.21;nan
75717;BME280;64333;50.138;14.332;2024-02-16T09:12:39;98376.69;;;12.20;nan
75717;BME280;64333;50.138;14.332;2024-02-16T09:15:05;98377.72;;;11.99;nan
75717;BME280;64333;50.138;14.332;2024-02-16T09:17:31;98373.38;;;12.85;nan
75717;BME280;64333;50.138;14.332;2024-02-16T09:19:56;98383.66;;;12.18;nan
75717;BME280;64333;50.138;14.332;2024-02-16T09:22:22;98378.56;;;12.34;nan
75717;BME280;64333;50.138;14.332;2024-02-16T09:24:47;98386.66;;;13.28;nan
75717;BME280;64333;50.138;14.332;2024-02-16T09:27:12;98388.75;;;13.53;nan
75717;BME280;64333;50.138;14.332;2024-02-16T09:32:03;98389.25;;;13.28;nan
75717;BME280;64333;50.138;14.332;2024-02-16T09:34:29;98384.34;;;13.86;nan
75717;BME280;64333;50.138;14.332;2024-02-16T09:36:54;98395.72;;;14.14;nan
75717;BME280;64333;50.138;14.332;2024-02-16T09:39:20;98385.25;;;14.00;nan
75717;BME280;64333;50.138;14.332;2024-02-16T09:41:50;98383.66;;;13.82;nan
75717;BME280;64333;50.138;14.332;2024-02-16T09:44:16;98387.19;;;13.81;nan
75717;BME280;64333;50.138;14.332;2024-02-16T09:46:42;98369.28;;;13.92;nan
75717;BME280;64333;50.138;14.332;2024-02-16T09:49:08;98373.28;;;13.82;nan
75717;BME280;64333;50.138;14.332;2024-02-16T09:51:36;98372.09;;;13.41;nan
75717;BME280;64333;50.138;14.332;2024-02-16T09:54:02;98380.59;;;13.76;nan
75717;BME280;64333;50.138;14.332;2024-02-16T09:56:28;98382.81;;;13.35;nan
75717;BME280;64333;50.138;14.332;2024-02-16T09:58:54;98374.47;;;13.61;nan
75717;BME280;64333;50.138;14.332;2024-02-16T10:01:22;98376.88;;;13.80;nan
75717;BME280;64333;50.138;14.332;2024-02-16T10:03:49;98380.47;;;12.81;nan
75717;BME280;64333;50.138;14.332;2024-02-16T10:06:14;98392.22;;;12.71;nan
75717;BME280;64333;50.138;14.332;2024-02-16T10:08:52;98384.88;;;13.13;nan
75717;BME280;64333;50.138;14.332;2024-02-16T10:11:20;98386.78;;;13.25;nan
75717;BME280;64333;50.138;14.332;2024-02-16T10:13:55;98386.84;;;12.91;nan
75717;BME280;64333;50.138;14.332;2024-02-16T10:16:21;98387.84;;;13.85;nan
75717;BME280;64333;50.138;14.332;2024-02-16T10:18:46;98387.59;;;14.20;nan
75717;BME280;64333;50.138;14.332;2024-02-16T10:21:11;98389.19;;;14.52;nan
75717;BME280;64333;50.138;14.332;2024-02-16T10:23:37;98392.22;;;13.53;nan
75717;BME280;64333;50.138;14.332;2024-02-16T10:26:02;98391.03;;;13.74;nan
75717;BME280;64333;50.138;14.332;2024-02-16T10:28:29;98387.44;;;13.92;nan
75717;BME280;64333;50.138;14.332;2024-02-16T10:30:59;98377.88;;;13.62;nan
75717;BME280;64333;50.138;14.332;2024-02-16T10:33:28;98376.28;;;14.06;nan
75717;BME280;64333;50.138;14.332;2024-02-16T10:35:56;98373.94;;;14.76;nan
75717;BME280;64333;50.138;14.332;2024-02-16T10:40:48;98363.56;;;15.32;nan
75717;BME280;64333;50.138;14.332;2024-02-16T10:43:15;98371.44;;;15.02;nan
75717;BME280;64333;50.138;14.332;2024-02-16T10:45:41;98363.75;;;15.29;nan
75717;BME280;64333;50.138;14.332;2024-02-16T10:48:07;98368.69;;;15.33;nan
75717;BME280;64333;50.138;14.332;2024-02-16T10:50:34;98368.47;;;15.50;nan
75717;BME280;64333;50.138;14.332;2024-02-16T10:53:08;98368.09;;;15.97;nan
75717;BME280;64333;50.138;14.332;2024-02-16T10:55:35;98366.00;;;16.28;nan
75717;BME280;64333;50.138;14.332;2024-02-16T10:58:00;98357.59;;;15.98;nan
75717;BME280;64333;50.138;14.332;2024-02-16T11:00:26;98356.84;;;16.23;nan
75717;BME280;64333;50.138;14.332;2024-02-16T11:02:55;98350.47;;;17.28;nan
75717;BME280;64333;50.138;14.332;2024-02-16T11:05:40;98343.81;;;17.11;nan
75717;BME280;64333;50.138;14.332;2024-02-16T11:08:37;98351.59;;;17.24;nan
75717;BME280;64333;50.138;14.332;2024-02-16T11:11:03;98340.00;;;18.81;nan
75717;BME280;64333;50.138;14.332;2024-02-16T11:13:32;98337.22;;;21.77;nan
75717;BME280;64333;50.138;14.332;2024-02-16T11:16:02;98332.63;;;21.40;nan
75717;BME280;64333;50.138;14.332;2024-02-16T11:18:32;98325.31;;;21.92;nan
75717;BME280;64333;50.138;14.332;2024-02-16T11:21:01;98319.28;;;22.68;nan
75717;BME280;64333;50.138;14.332;2024-02-16T11:23:28;98317.72;;;23.84;nan
75717;BME280;64333;50.138;14.332;2024-02-16T11:26:03;98321.56;;;24.51;nan
75717;BME280;64333;50.138;14.332;2024-02-16T11:28:33;98311.47;;;25.82;nan
75717;BME280;64333;50.138;14.332;2024-02-16T11:31:00;98308.94;;;26.30;nan
75717;BME280;64333;50.138;14.332;2024-02-16T11:33:25;98297.63;;;27.24;nan
75717;BME280;64333;50.138;14.332;2024-02-16T11:35:54;98310.69;;;24.54;nan
75717;BME280;64333;50.138;14.332;2024-02-16T11:38:20;98319.16;;;24.58;nan
75717;BME280;64333;50.138;14.332;2024-02-16T11:40:57;98311.22;;;25.26;nan
75717;BME280;64333;50.138;14.332;2024-02-16T11:43:23;98304.72;;;28.76;nan
75717;BME280;64333;50.138;14.332;2024-02-16T11:45:49;98294.38;;;27.53;nan
75717;BME280;64333;50.138;14.332;2024-02-16T11:48:25;98310.22;;;26.18;nan
75717;BME280;64333;50.138;14.332;2024-02-16T11:50:59;98313.22;;;26.39;nan
75717;BME280;64333;50.138;14.332;2024-02-16T11:53:25;98302.41;;;27.29;nan
75717;BME280;64333;50.138;14.332;2024-02-16T11:55:52;98307.84;;;25.50;nan
75717;BME280;64333;50.138;14.332;2024-02-16T11:58:18;98301.41;;;23.17;nan
75717;BME280;64333;50.138;14.332;2024-02-16T12:05:57;98305.41;;;25.56;nan
75717;BME280;64333;50.138;14.332;2024-02-16T12:08:24;98294.91;;;23.21;nan
75717;BME280;64333;50.138;14.332;2024-02-16T12:10:56;98309.44;;;22.13;nan
75717;BME280;64333;50.138;14.332;2024-02-16T12:13:22;98306.16;;;20.92;nan
75717;BME280;64333;50.138;14.332;2024-02-16T12:15:48;98308.91;;;20.50;nan
75717;BME280;64333;50.138;14.332;2024-02-16T12:21:05;98307.03;;;20.20;nan
75717;BME280;64333;50.138;14.332;2024-02-16T12:23:32;98306.13;;;21.62;nan
75717;BME280;64333;50.138;14.332;2024-02-16T12:25:58;98304.22;;;20.74;nan
75717;BME280;64333;50.138;14.332;2024-02-16T12:28:25;98304.91;;;21.17;nan
75717;BME280;64333;50.138;14.332;2024-02-16T12:30:51;98308.00;;;20.40;nan
75717;BME280;64333;50.138;14.332;2024-02-16T12:33:16;98301.72;;;20.31;nan
75717;BME280;64333;50.138;14.332;2024-02-16T12:35:42;98306.66;;;20.45;nan
75717;BME280;64333;50.138;14.332;2024-02-16T12:38:07;98301.16;;;20.48;nan
75717;BME280;64333;50.138;14.332;2024-02-16T12:40:33;98305.06;;;20.33;nan
75717;BME280;64333;50.138;14.332;2024-02-16T12:42:58;98309.41;;;20.44;nan
75717;BME280;64333;50.138;14.332;2024-02-16T12:45:24;98309.69;;;20.09;nan
75717;BME280;64333;50.138;14.332;2024-02-16T12:47:49;98309.47;;;19.37;nan
75717;BME280;64333;50.138;14.332;2024-02-16T12:50:16;98314.59;;;20.75;nan
75717;BME280;64333;50.138;14.332;2024-02-16T12:52:42;98308.75;;;22.30;nan
75717;BME280;64333;50.138;14.332;2024-02-16T12:55:08;98295.44;;;22.60;nan
75717;BME280;64333;50.138;14.332;2024-02-16T12:57:36;98291.63;;;23.64;nan
75717;BME280;64333;50.138;14.332;2024-02-16T13:00:01;98297.31;;;23.86;nan
75717;BME280;64333;50.138;14.332;2024-02-16T13:02:28;98302.09;;;23.56;nan
75717;BME280;64333;50.138;14.332;2024-02-16T13:04:54;98296.13;;;23.54;nan
75717;BME280;64333;50.138;14.332;2024-02-16T13:07:19;98294.09;;;24.87;nan
75717;BME280;64333;50.138;14.332;2024-02-16T13:09:45;98288.47;;;29.23;nan
75717;BME280;64333;50.138;14.332;2024-02-16T13:12:10;98285.59;;;33.84;nan
75717;BME280;64333;50.138;14.332;2024-02-16T13:14:36;98277.06;;;35.11;nan
75717;BME280;64333;50.138;14.332;2024-02-16T13:17:02;98282.69;;;35.99;nan
75717;BME280;64333;50.138;14.332;2024-02-16T13:19:27;98270.72;;;33.24;nan
75717;BME280;64333;50.138;14.332;2024-02-16T13:24:20;98272.84;;;26.77;nan
75717;BME280;64333;50.138;14.332;2024-02-16T13:26:46;98273.78;;;28.61;nan